Search METAR Data

METAR Data for ENHV:

ENHV 211220Z 01004KT CAVOK 13/11 Q1016